Time;durP1;ratioP1;P1;durP2;ratioP2;P2;SDS_P1;SDS_P2;PMS_P1;PMS_P2;Temp;Humidity;BMP_temperature;BMP_pressure;BME280_temperature;BME280_humidity;BME280_pressure;Samples;Min_cycle;Max_cycle;Signal;HPM_P1;HPM_P2
2022/01/01 00:01:20;;;;;;;351.55;173.68;;;;;;;;;;5054468;28;20021;-64
2022/01/01 00:03:46;;;;;;;345.13;164.45;;;;;;;;;;5054402;28;20021;-61
2022/01/01 00:06:12;;;;;;;369.55;169.05;;;;;;;;;;5054008;28;20490;-63
2022/01/01 00:08:38;;;;;;;325.20;159.27;;;;;;;;;;5053784;28;20031;-61
2022/01/01 00:11:04;;;;;;;300.75;141.65;;;;;;;;;;5054551;28;20554;-61
2022/01/01 00:13:31;;;;;;;290.17;138.43;;;;;;;;;;5053541;28;20031;-61
2022/01/01 00:15:57;;;;;;;282.80;140.00;;;;;;;;;;5053799;28;20028;-62
2022/01/01 00:18:23;;;;;;;289.65;138.48;;;;;;;;;;5054581;28;20070;-61
2022/01/01 00:20:49;;;;;;;289.65;140.52;;;;;;;;;;5053693;28;20024;-61
2022/01/01 00:23:15;;;;;;;267.33;125.55;;;;;;;;;;5053865;28;20102;-62
2022/01/01 00:25:41;;;;;;;283.42;140.98;;;;;;;;;;5054219;28;20086;-61
2022/01/01 00:28:08;;;;;;;303.35;141.20;;;;;;;;;;5053476;28;20594;-62
2022/01/01 00:30:34;;;;;;;295.98;138.95;;;;;;;;;;5053771;28;20017;-62
2022/01/01 00:33:00;;;;;;;282.85;136.55;;;;;;;;;;5053272;28;20024;-62
2022/01/01 00:35:26;;;;;;;281.67;139.32;;;;;;;;;;5053471;28;20426;-63
2022/01/01 00:37:52;;;;;;;330.58;158.38;;;;;;;;;;5053431;28;20035;-62
2022/01/01 00:40:19;;;;;;;313.90;152.35;;;;;;;;;;5053385;28;20049;-60
2022/01/01 00:42:45;;;;;;;374.98;171.30;;;;;;;;;;5053172;28;20060;-60
2022/01/01 00:45:11;;;;;;;352.50;160.98;;;;;;;;;;5054075;28;20487;-61
2022/01/01 00:47:37;;;;;;;327.58;153.27;;;;;;;;;;5053030;28;20025;-62
2022/01/01 00:50:04;;;;;;;348.30;160.32;;;;;;;;;;5053219;28;20112;-63
2022/01/01 00:52:30;;;;;;;331.60;169.00;;;;;;;;;;5053585;28;20029;-61
2022/01/01 00:54:56;;;;;;;336.83;161.50;;;;;;;;;;5053013;28;20043;-61
2022/01/01 00:57:22;;;;;;;319.42;156.52;;;;;;;;;;5053130;28;20383;-61
2022/01/01 00:59:48;;;;;;;283.58;144.40;;;;;;;;;;5053417;28;20379;-62
2022/01/01 01:02:14;;;;;;;244.38;122.90;;;;;;;;;;5052816;28;20468;-61
2022/01/01 01:04:41;;;;;;;196.38;99.45;;;;;;;;;;5053680;28;20367;-61
2022/01/01 01:07:08;;;;;;;262.33;131.00;;;;;;;;;;5053377;28;20467;-62
2022/01/01 01:09:34;;;;;;;310.52;148.40;;;;;;;;;;5052534;28;20064;-62
2022/01/01 01:12:00;;;;;;;155.23;77.28;;;;;;;;;;5053289;28;20364;-61
2022/01/01 01:14:28;;;;;;;166.85;77.75;;;;;;;;;;5052978;28;20497;-61
2022/01/01 01:16:54;;;;;;;151.75;71.88;;;;;;;;;;5052897;28;20082;-61
2022/01/01 01:19:21;;;;;;;163.95;71.75;;;;;;;;;;5053237;28;20025;-61
2022/01/01 01:21:48;;;;;;;166.80;72.60;;;;;;;;;;5052954;28;20417;-62
2022/01/01 01:24:16;;;;;;;148.43;70.97;;;;;;;;;;5052840;28;20030;-61
2022/01/01 01:26:48;;;;;;;202.00;99.88;;;;;;;;;;5052777;28;20029;-61
2022/01/01 01:29:14;;;;;;;297.60;144.35;;;;;;;;;;5052353;28;20387;-61
2022/01/01 01:31:40;;;;;;;302.35;136.98;;;;;;;;;;5052718;28;20028;-61
2022/01/01 01:34:07;;;;;;;303.88;143.18;;;;;;;;;;5053098;28;20032;-61
2022/01/01 01:36:33;;;;;;;292.25;141.32;;;;;;;;;;5052744;28;20021;-62
2022/01/01 01:38:59;;;;;;;306.40;142.98;;;;;;;;;;5053678;28;20406;-60
2022/01/01 01:41:29;;;;;;;293.50;136.15;;;;;;;;;;5052924;28;20492;-60
2022/01/01 01:43:57;;;;;;;259.20;113.10;;;;;;;;;;5052616;28;20505;-60
2022/01/01 01:46:23;;;;;;;241.13;110.30;;;;;;;;;;5052957;28;20035;-61
2022/01/01 01:48:49;;;;;;;239.75;110.13;;;;;;;;;;5035730;28;20372;-61
2022/01/01 01:51:16;;;;;;;246.13;111.15;;;;;;;;;;5052272;28;20017;-61
2022/01/01 01:53:42;;;;;;;225.80;106.00;;;;;;;;;;5052974;28;20051;-62
2022/01/01 01:56:08;;;;;;;224.25;105.20;;;;;;;;;;5052989;28;20024;-62
2022/01/01 01:58:34;;;;;;;208.63;102.25;;;;;;;;;;5052658;28;20035;-62
2022/01/01 02:03:36;;;;;;;192.20;93.60;;;;;;;;;;5052910;28;20033;-62
2022/01/01 02:06:05;;;;;;;174.25;84.45;;;;;;;;;;5052262;28;20021;-61
2022/01/01 02:08:31;;;;;;;164.55;81.85;;;;;;;;;;5052696;28;20059;-62
2022/01/01 02:10:58;;;;;;;149.45;73.88;;;;;;;;;;5052462;28;20029;-62
2022/01/01 02:13:33;;;;;;;143.15;77.47;;;;;;;;;;5052859;28;20482;-62
2022/01/01 02:18:51;;;;;;;191.73;87.50;;;;;;;;;;5056236;28;20399;-62
2022/01/01 02:21:18;;;;;;;196.93;90.93;;;;;;;;;;5056354;28;20414;-62
2022/01/01 02:23:46;;;;;;;202.85;88.85;;;;;;;;;;5056314;28;20025;-63
2022/01/01 02:26:15;;;;;;;186.00;84.55;;;;;;;;;;5056025;28;20021;-61
2022/01/01 02:28:42;;;;;;;170.93;79.93;;;;;;;;;;5056065;28;20037;-63
2022/01/01 02:31:08;;;;;;;175.40;78.25;;;;;;;;;;5056139;28;20099;-61
2022/01/01 02:33:35;;;;;;;164.23;71.78;;;;;;;;;;5055815;28;20053;-61
2022/01/01 02:36:01;;;;;;;178.80;75.38;;;;;;;;;;5055739;28;20063;-61
2022/01/01 02:38:28;;;;;;;159.95;74.45;;;;;;;;;;5056054;28;20035;-61
2022/01/01 02:40:54;;;;;;;164.98;81.07;;;;;;;;;;5055434;28;20025;-61
2022/01/01 02:43:20;;;;;;;158.48;75.45;;;;;;;;;;5056313;28;20045;-61
2022/01/01 02:45:46;;;;;;;164.25;78.25;;;;;;;;;;5056133;28;20021;-62
2022/01/01 02:48:15;;;;;;;138.05;70.30;;;;;;;;;;5055354;28;20497;-62
2022/01/01 02:50:42;;;;;;;152.88;75.90;;;;;;;;;;5055429;28;20528;-62
2022/01/01 02:53:12;;;;;;;149.57;74.32;;;;;;;;;;5055023;28;20406;-61
2022/01/01 02:55:38;;;;;;;153.77;76.68;;;;;;;;;;5055273;28;20017;-61
2022/01/01 02:58:05;;;;;;;146.25;71.88;;;;;;;;;;5055476;28;20382;-61
2022/01/01 03:00:31;;;;;;;140.35;69.28;;;;;;;;;;5055044;28;20534;-61
2022/01/01 03:02:57;;;;;;;128.57;68.15;;;;;;;;;;5055390;28;20025;-61
2022/01/01 03:05:23;;;;;;;120.40;63.22;;;;;;;;;;5055374;28;20033;-60
2022/01/01 03:07:49;;;;;;;113.13;62.15;;;;;;;;;;5055090;28;20025;-60
2022/01/01 03:10:15;;;;;;;141.35;71.10;;;;;;;;;;5055912;28;20049;-61
2022/01/01 03:12:41;;;;;;;149.45;76.55;;;;;;;;;;5056167;28;20082;-61
2022/01/01 03:15:08;;;;;;;163.93;80.70;;;;;;;;;;5055795;28;20029;-61
2022/01/01 03:17:34;;;;;;;179.57;86.43;;;;;;;;;;5056280;28;20467;-62
2022/01/01 03:20:00;;;;;;;166.25;83.60;;;;;;;;;;5055247;28;20406;-59
2022/01/01 03:22:26;;;;;;;198.40;96.95;;;;;;;;;;5054724;28;20375;-61
2022/01/01 03:24:52;;;;;;;207.70;100.85;;;;;;;;;;5055306;28;20044;-61
2022/01/01 03:27:18;;;;;;;169.88;80.10;;;;;;;;;;5055056;28;20405;-61
2022/01/01 03:29:45;;;;;;;122.32;63.85;;;;;;;;;;5054751;28;20464;-61
2022/01/01 03:32:11;;;;;;;105.40;53.15;;;;;;;;;;5054625;28;20029;-61
2022/01/01 03:34:37;;;;;;;87.97;46.15;;;;;;;;;;5037811;28;20444;-61
2022/01/01 03:37:03;;;;;;;89.20;43.17;;;;;;;;;;5054500;28;20021;-61
2022/01/01 03:39:29;;;;;;;82.70;41.88;;;;;;;;;;5054885;28;20059;-61
2022/01/01 03:41:56;;;;;;;85.45;41.17;;;;;;;;;;5054044;28;20503;-62
2022/01/01 03:44:22;;;;;;;77.90;39.53;;;;;;;;;;5054824;28;20466;-61
2022/01/01 03:46:48;;;;;;;76.90;39.40;;;;;;;;;;5054363;28;20074;-60
2022/01/01 03:49:14;;;;;;;69.72;37.80;;;;;;;;;;5054302;28;20047;-61
2022/01/01 03:51:41;;;;;;;65.22;36.67;;;;;;;;;;5054808;28;20029;-60
2022/01/01 03:54:07;;;;;;;69.65;36.78;;;;;;;;;;5054511;28;20032;-61
2022/01/01 03:56:37;;;;;;;69.72;37.10;;;;;;;;;;5054170;28;20074;-61
2022/01/01 03:59:03;;;;;;;66.55;34.15;;;;;;;;;;5054460;28;20083;-61
2022/01/01 04:01:29;;;;;;;64.97;33.45;;;;;;;;;;5054148;28;20021;-61
2022/01/01 04:03:55;;;;;;;61.03;32.53;;;;;;;;;;5054132;28;20021;-61
2022/01/01 04:06:21;;;;;;;63.65;33.55;;;;;;;;;;5054404;28;20370;-63
2022/01/01 04:08:48;;;;;;;58.47;31.80;;;;;;;;;;5053988;28;20061;-63
2022/01/01 04:11:14;;;;;;;59.13;30.40;;;;;;;;;;5053942;28;20032;-61
2022/01/01 04:13:40;;;;;;;57.47;31.30;;;;;;;;;;5053965;28;20091;-62
2022/01/01 04:16:06;;;;;;;65.40;35.08;;;;;;;;;;5054139;28;20072;-61
2022/01/01 04:18:39;;;;;;;90.50;46.70;;;;;;;;;;5054003;28;20051;-61
2022/01/01 04:21:11;;;;;;;115.88;58.55;;;;;;;;;;5054655;28;20025;-62
2022/01/01 04:23:38;;;;;;;122.25;61.63;;;;;;;;;;5053957;28;20048;-61
2022/01/01 04:26:07;;;;;;;124.63;60.67;;;;;;;;;;5053486;28;20529;-62
2022/01/01 04:28:33;;;;;;;114.03;55.22;;;;;;;;;;5053632;28;20041;-61
2022/01/01 04:30:59;;;;;;;75.18;41.08;;;;;;;;;;5052791;28;20053;-60
2022/01/01 04:33:25;;;;;;;68.43;37.00;;;;;;;;;;5053981;28;20025;-60
2022/01/01 04:35:51;;;;;;;65.97;34.53;;;;;;;;;;5053555;28;20021;-60
2022/01/01 04:38:37;;;;;;;57.53;30.13;;;;;;;;;;5053527;28;20021;-61
2022/01/01 04:41:07;;;;;;;49.60;28.52;;;;;;;;;;5053081;28;20056;-61
2022/01/01 04:43:33;;;;;;;54.13;29.58;;;;;;;;;;5053514;28;20021;-61
2022/01/01 04:46:00;;;;;;;53.45;30.35;;;;;;;;;;5053186;28;20074;-61
2022/01/01 04:48:26;;;;;;;58.83;32.10;;;;;;;;;;5053244;28;20056;-61
2022/01/01 04:50:52;;;;;;;54.78;30.77;;;;;;;;;;5053723;28;20021;-61
2022/01/01 04:53:19;;;;;;;57.35;30.80;;;;;;;;;;5053079;28;20028;-61
2022/01/01 04:55:46;;;;;;;55.72;31.80;;;;;;;;;;5053238;28;20105;-60
2022/01/01 04:58:12;;;;;;;66.43;34.10;;;;;;;;;;5053867;28;20099;-60
2022/01/01 05:00:38;;;;;;;58.95;32.35;;;;;;;;;;5053378;28;20016;-61
2022/01/01 05:03:04;;;;;;;59.63;34.13;;;;;;;;;;5053055;28;20074;-61
2022/01/01 05:05:30;;;;;;;62.38;33.60;;;;;;;;;;5053541;28;20021;-61
2022/01/01 05:07:57;;;;;;;68.68;34.92;;;;;;;;;;5053217;28;20017;-60
2022/01/01 05:10:26;;;;;;;66.07;34.42;;;;;;;;;;5053424;28;20395;-61
2022/01/01 05:12:52;;;;;;;59.10;34.20;;;;;;;;;;5052950;28;20025;-60
2022/01/01 05:15:19;;;;;;;62.28;36.00;;;;;;;;;;5053453;28;20025;-61
2022/01/01 05:17:45;;;;;;;69.63;34.95;;;;;;;;;;5053540;28;20085;-61
2022/01/01 05:20:11;;;;;;;63.33;34.85;;;;;;;;;;5052122;28;20031;-61
2022/01/01 05:22:37;;;;;;;66.50;35.55;;;;;;;;;;5053306;28;20021;-61
2022/01/01 05:25:05;;;;;;;67.60;34.70;;;;;;;;;;5053525;28;20029;-62
2022/01/01 05:27:34;;;;;;;62.25;33.38;;;;;;;;;;5053331;28;20100;-62
2022/01/01 05:30:01;;;;;;;63.05;33.60;;;;;;;;;;5053157;28;20041;-62
2022/01/01 05:32:27;;;;;;;60.63;34.28;;;;;;;;;;5053119;28;20017;-62
2022/01/01 05:34:53;;;;;;;61.80;33.67;;;;;;;;;;5052545;28;20051;-60
2022/01/01 05:37:19;;;;;;;57.55;32.20;;;;;;;;;;5052789;28;20480;-61
2022/01/01 05:39:46;;;;;;;60.95;32.78;;;;;;;;;;5052104;28;20040;-62
2022/01/01 05:42:12;;;;;;;60.92;33.50;;;;;;;;;;5052385;28;20056;-63
2022/01/01 05:44:39;;;;;;;55.67;31.00;;;;;;;;;;5052698;28;20140;-61
2022/01/01 05:47:05;;;;;;;58.88;32.03;;;;;;;;;;5053010;28;20067;-62
2022/01/01 05:49:31;;;;;;;61.85;32.85;;;;;;;;;;5052345;28;20493;-62
2022/01/01 05:51:58;;;;;;;54.10;31.08;;;;;;;;;;5054112;28;20033;-62
2022/01/01 05:54:24;;;;;;;60.63;32.25;;;;;;;;;;5056922;28;20478;-62
2022/01/01 05:56:50;;;;;;;59.83;31.88;;;;;;;;;;5056493;28;20032;-61
2022/01/01 05:59:16;;;;;;;56.13;31.30;;;;;;;;;;5057050;28;20021;-61
2022/01/01 06:01:42;;;;;;;58.35;31.50;;;;;;;;;;5057126;28;20021;-61
2022/01/01 06:04:08;;;;;;;58.38;33.20;;;;;;;;;;5056344;28;20021;-60
2022/01/01 06:06:34;;;;;;;57.63;32.90;;;;;;;;;;5056710;28;20025;-61
2022/01/01 06:09:01;;;;;;;55.17;29.75;;;;;;;;;;5056220;28;20033;-62
2022/01/01 06:11:27;;;;;;;59.90;32.38;;;;;;;;;;5056331;28;20391;-61
2022/01/01 06:13:53;;;;;;;137.02;70.45;;;;;;;;;;5056719;28;20029;-60
2022/01/01 06:16:19;;;;;;;130.65;66.65;;;;;;;;;;5056164;28;20024;-61
2022/01/01 06:18:45;;;;;;;127.88;69.40;;;;;;;;;;5056179;28;20029;-61
2022/01/01 06:21:11;;;;;;;158.07;77.63;;;;;;;;;;5056114;28;20378;-62
2022/01/01 06:23:39;;;;;;;136.50;72.10;;;;;;;;;;5056087;28;20468;-62
2022/01/01 06:26:06;;;;;;;108.40;51.50;;;;;;;;;;5056274;28;20023;-62
2022/01/01 06:28:32;;;;;;;97.57;51.88;;;;;;;;;;5056358;28;20057;-61
2022/01/01 06:30:58;;;;;;;82.32;40.88;;;;;;;;;;5055862;28;20486;-61
2022/01/01 06:33:24;;;;;;;65.88;33.03;;;;;;;;;;5056463;28;20025;-62
2022/01/01 06:35:51;;;;;;;63.33;34.00;;;;;;;;;;5056078;28;20021;-61
2022/01/01 06:38:17;;;;;;;67.45;34.03;;;;;;;;;;5055478;28;20021;-62
2022/01/01 06:40:44;;;;;;;131.82;63.30;;;;;;;;;;5055802;28;20050;-61
2022/01/01 06:43:11;;;;;;;230.07;117.43;;;;;;;;;;5056523;28;20088;-62
2022/01/01 06:45:38;;;;;;;210.10;104.68;;;;;;;;;;5055615;28;20056;-62
2022/01/01 06:48:04;;;;;;;186.75;95.22;;;;;;;;;;5038033;28;20395;-62
2022/01/01 06:50:30;;;;;;;178.95;84.57;;;;;;;;;;5055766;28;20108;-61
2022/01/01 06:52:56;;;;;;;119.25;61.08;;;;;;;;;;5055524;28;20028;-61
2022/01/01 06:55:23;;;;;;;93.18;47.60;;;;;;;;;;5055834;28;20031;-61
2022/01/01 06:57:49;;;;;;;80.63;39.80;;;;;;;;;;5055085;28;20049;-60
2022/01/01 07:00:16;;;;;;;79.30;38.88;;;;;;;;;;5055414;28;20102;-62
2022/01/01 07:02:43;;;;;;;75.25;36.72;;;;;;;;;;5055889;28;20372;-61
2022/01/01 07:05:10;;;;;;;62.58;34.05;;;;;;;;;;5055309;28;20021;-61
2022/01/01 07:07:36;;;;;;;68.68;34.83;;;;;;;;;;5055431;28;20502;-61
2022/01/01 07:10:06;;;;;;;62.20;33.42;;;;;;;;;;5055095;28;20033;-61
2022/01/01 07:12:34;;;;;;;63.33;33.60;;;;;;;;;;5055310;28;20033;-61
2022/01/01 07:15:00;;;;;;;59.15;31.25;;;;;;;;;;5055423;28;20017;-61
2022/01/01 07:17:26;;;;;;;65.32;32.15;;;;;;;;;;5055163;28;20075;-61
2022/01/01 07:19:52;;;;;;;52.72;30.75;;;;;;;;;;5055023;28;20024;-61
2022/01/01 07:22:19;;;;;;;56.75;31.15;;;;;;;;;;5044554;28;20033;-61
2022/01/01 07:24:46;;;;;;;48.20;27.42;;;;;;;;;;5035273;28;20033;-60
2022/01/01 07:27:12;;;;;;;48.88;27.75;;;;;;;;;;5035134;28;20027;-60
2022/01/01 07:29:39;;;;;;;52.60;28.17;;;;;;;;;;5034878;28;20036;-61
2022/01/01 07:32:05;;;;;;;51.17;28.58;;;;;;;;;;5034900;28;20530;-61
2022/01/01 07:34:31;;;;;;;49.90;28.30;;;;;;;;;;5034696;28;20051;-62
2022/01/01 07:36:57;;;;;;;58.53;30.42;;;;;;;;;;5035828;28;20025;-62
2022/01/01 07:39:23;;;;;;;46.75;29.10;;;;;;;;;;5035205;28;20033;-62
2022/01/01 07:41:50;;;;;;;55.10;31.25;;;;;;;;;;5034605;28;20050;-61
2022/01/01 07:44:16;;;;;;;59.38;33.80;;;;;;;;;;5032859;28;20033;-61
2022/01/01 07:46:42;;;;;;;105.50;62.33;;;;;;;;;;5033072;28;20018;-61
2022/01/01 07:49:08;;;;;;;90.80;52.55;;;;;;;;;;5034191;28;20032;-62
2022/01/01 07:51:34;;;;;;;77.40;43.85;;;;;;;;;;5033725;28;20033;-61
2022/01/01 07:54:00;;;;;;;58.22;32.17;;;;;;;;;;5034263;28;20022;-62
2022/01/01 07:56:26;;;;;;;91.25;53.05;;;;;;;;;;5033670;28;20025;-61
2022/01/01 07:58:52;;;;;;;119.32;69.75;;;;;;;;;;5032867;28;20029;-61
2022/01/01 08:01:19;;;;;;;104.70;59.97;;;;;;;;;;5034174;28;20025;-62
2022/01/01 08:03:49;;;;;;;84.22;43.75;;;;;;;;;;5034545;28;20022;-62
2022/01/01 08:06:15;;;;;;;94.22;41.58;;;;;;;;;;5034343;28;20053;-63
2022/01/01 08:08:41;;;;;;;86.55;40.25;;;;;;;;;;5033842;28;20044;-62
2022/01/01 08:11:08;;;;;;;71.80;36.47;;;;;;;;;;5034520;28;20025;-63
2022/01/01 08:13:35;;;;;;;62.88;32.95;;;;;;;;;;5032338;28;20017;-62
2022/01/01 08:16:02;;;;;;;74.25;35.70;;;;;;;;;;5033696;28;20041;-62
2022/01/01 08:18:31;;;;;;;65.53;35.30;;;;;;;;;;5033807;28;20053;-60
2022/01/01 08:20:57;;;;;;;69.38;37.03;;;;;;;;;;5033643;28;20529;-63
2022/01/01 08:23:24;;;;;;;59.25;31.90;;;;;;;;;;5033105;28;20026;-63
2022/01/01 08:25:50;;;;;;;48.15;28.67;;;;;;;;;;5033684;28;20052;-62
2022/01/01 08:28:16;;;;;;;50.75;27.73;;;;;;;;;;5033367;28;20021;-61
2022/01/01 08:30:42;;;;;;;47.00;28.27;;;;;;;;;;5034316;28;20086;-61
2022/01/01 08:33:08;;;;;;;44.67;26.83;;;;;;;;;;5033293;28;20021;-63
2022/01/01 08:35:35;;;;;;;47.85;29.73;;;;;;;;;;5033721;28;20021;-61
2022/01/01 08:38:04;;;;;;;45.88;27.27;;;;;;;;;;5033466;28;20021;-61
2022/01/01 08:40:30;;;;;;;44.78;25.83;;;;;;;;;;5033359;28;20513;-61
2022/01/01 08:42:56;;;;;;;43.53;26.92;;;;;;;;;;5034512;28;20045;-62
2022/01/01 08:45:22;;;;;;;41.88;24.48;;;;;;;;;;5033944;28;20024;-61
2022/01/01 08:47:48;;;;;;;52.75;30.58;;;;;;;;;;5033558;28;20022;-62
2022/01/01 08:50:15;;;;;;;46.13;28.75;;;;;;;;;;5033469;28;20029;-61
2022/01/01 08:52:41;;;;;;;46.10;25.80;;;;;;;;;;5033618;28;20029;-63
2022/01/01 08:55:08;;;;;;;44.92;26.00;;;;;;;;;;5033516;28;20452;-61
2022/01/01 08:57:34;;;;;;;50.42;26.92;;;;;;;;;;5033619;28;20121;-60
2022/01/01 09:00:01;;;;;;;43.33;25.65;;;;;;;;;;5033690;28;20384;-61
2022/01/01 09:02:28;;;;;;;40.25;23.17;;;;;;;;;;5033054;28;20380;-66
2022/01/01 09:04:54;;;;;;;37.22;21.58;;;;;;;;;;5033643;28;20057;-60
2022/01/01 09:07:20;;;;;;;37.78;21.77;;;;;;;;;;5032752;28;20022;-62
2022/01/01 09:09:47;;;;;;;42.15;25.90;;;;;;;;;;5033187;28;20037;-62
2022/01/01 09:12:13;;;;;;;52.40;29.65;;;;;;;;;;5033280;28;20119;-61
2022/01/01 09:14:39;;;;;;;47.22;27.25;;;;;;;;;;5033176;28;20036;-62
2022/01/01 09:17:07;;;;;;;45.38;28.38;;;;;;;;;;5033244;28;20039;-63
2022/01/01 09:19:33;;;;;;;49.67;31.85;;;;;;;;;;5048970;28;20403;-62
2022/01/01 09:22:00;;;;;;;51.65;32.63;;;;;;;;;;5033148;28;20026;-63
2022/01/01 09:24:26;;;;;;;51.63;31.83;;;;;;;;;;5033194;28;20040;-63
2022/01/01 09:26:52;;;;;;;52.17;31.33;;;;;;;;;;5036448;28;20102;-60
2022/01/01 09:29:18;;;;;;;53.50;32.47;;;;;;;;;;5037239;28;20030;-61
2022/01/01 09:31:45;;;;;;;60.13;34.92;;;;;;;;;;5037053;28;20104;-62
2022/01/01 09:34:12;;;;;;;53.38;31.48;;;;;;;;;;5037314;28;20075;-62
2022/01/01 09:36:38;;;;;;;52.42;30.13;;;;;;;;;;5036771;28;20096;-60
2022/01/01 09:39:05;;;;;;;51.28;29.98;;;;;;;;;;5037109;28;20025;-62
2022/01/01 09:41:32;;;;;;;53.28;30.90;;;;;;;;;;5037252;28;20044;-61
2022/01/01 09:43:58;;;;;;;50.55;29.35;;;;;;;;;;5036636;28;20021;-61
2022/01/01 09:46:26;;;;;;;44.55;27.27;;;;;;;;;;5036799;28;20486;-62
2022/01/01 09:48:52;;;;;;;46.70;26.02;;;;;;;;;;5037199;28;20040;-61
2022/01/01 09:51:20;;;;;;;41.78;26.02;;;;;;;;;;5018866;28;20498;-62
2022/01/01 09:53:47;;;;;;;42.20;25.27;;;;;;;;;;5036835;28;20037;-62
2022/01/01 09:56:13;;;;;;;37.72;23.77;;;;;;;;;;5036763;28;20023;-61
2022/01/01 09:58:39;;;;;;;42.42;23.85;;;;;;;;;;5018868;28;20479;-62
2022/01/01 10:01:07;;;;;;;42.90;26.08;;;;;;;;;;5036785;28;20096;-61
2022/01/01 10:03:38;;;;;;;45.70;29.13;;;;;;;;;;5036504;28;20026;-63
2022/01/01 10:06:06;;;;;;;54.15;31.98;;;;;;;;;;5036304;28;20087;-63
2022/01/01 10:08:33;;;;;;;49.42;29.58;;;;;;;;;;5035891;28;20095;-63
2022/01/01 10:10:59;;;;;;;54.20;32.45;;;;;;;;;;5035894;28;20079;-62
2022/01/01 10:13:26;;;;;;;55.42;33.53;;;;;;;;;;5036112;28;20071;-62
2022/01/01 10:15:54;;;;;;;67.38;36.95;;;;;;;;;;5035862;28;20025;-62
2022/01/01 10:18:25;;;;;;;60.55;36.70;;;;;;;;;;5036296;28;20484;-61
2022/01/01 10:20:55;;;;;;;63.13;36.42;;;;;;;;;;5036683;28;20029;-61
2022/01/01 10:23:26;;;;;;;59.80;35.33;;;;;;;;;;5036265;28;20376;-62
2022/01/01 10:28:37;;;;;;;60.30;33.88;;;;;;;;;;5016487;28;20087;-61
2022/01/01 10:31:08;;;;;;;57.92;33.40;;;;;;;;;;5016553;28;20034;-62
2022/01/01 10:33:34;;;;;;;61.17;34.50;;;;;;;;;;5016180;28;20037;-62
2022/01/01 10:36:06;;;;;;;53.83;32.63;;;;;;;;;;5035618;28;20029;-60
2022/01/01 10:38:32;;;;;;;54.65;32.97;;;;;;;;;;5017594;28;20482;-61
2022/01/01 10:41:09;;;;;;;52.95;31.00;;;;;;;;;;5035722;28;20380;-62
2022/01/01 10:43:45;;;;;;;54.83;29.85;;;;;;;;;;5036187;28;20017;-61
2022/01/01 10:46:13;;;;;;;55.30;30.70;;;;;;;;;;5035773;28;20486;-61
2022/01/01 10:48:54;;;;;;;48.72;29.92;;;;;;;;;;5038213;28;20423;-61
2022/01/01 10:51:20;;;;;;;60.78;33.45;;;;;;;;;;5035981;28;20029;-60
2022/01/01 10:53:46;;;;;;;50.88;31.10;;;;;;;;;;5034933;28;20388;-62
2022/01/01 10:56:17;;;;;;;54.55;31.25;;;;;;;;;;5035886;28;20361;-62
2022/01/01 10:58:43;;;;;;;60.40;33.90;;;;;;;;;;5035601;28;20038;-61
2022/01/01 11:01:09;;;;;;;62.80;35.47;;;;;;;;;;5035459;28;20775;-62
2022/01/01 11:03:39;;;;;;;71.00;38.35;;;;;;;;;;5035444;28;20049;-64
2022/01/01 11:06:07;;;;;;;66.47;35.50;;;;;;;;;;5018109;28;20021;-62
2022/01/01 11:08:34;;;;;;;57.50;34.22;;;;;;;;;;5034844;28;20022;-63
2022/01/01 11:11:01;;;;;;;56.85;31.85;;;;;;;;;;5035104;28;20499;-62
2022/01/01 11:13:28;;;;;;;51.88;30.73;;;;;;;;;;5035130;28;20029;-63
2022/01/01 11:15:54;;;;;;;54.08;32.85;;;;;;;;;;5035138;28;20491;-61
2022/01/01 11:18:22;;;;;;;53.17;31.35;;;;;;;;;;5017452;28;20529;-62
2022/01/01 11:20:50;;;;;;;47.65;27.98;;;;;;;;;;5035067;28;20356;-63
2022/01/01 11:23:16;;;;;;;51.00;29.38;;;;;;;;;;5035026;28;20036;-62
2022/01/01 11:25:43;;;;;;;49.25;30.33;;;;;;;;;;5035446;28;20396;-62
2022/01/01 11:28:10;;;;;;;49.03;30.20;;;;;;;;;;5035000;28;20018;-63
2022/01/01 11:30:38;;;;;;;51.30;29.88;;;;;;;;;;5035090;28;20045;-60
2022/01/01 11:33:04;;;;;;;50.97;30.35;;;;;;;;;;5035106;28;20025;-61
2022/01/01 11:35:32;;;;;;;53.75;30.83;;;;;;;;;;5034570;28;20049;-63
2022/01/01 11:38:08;;;;;;;52.15;30.65;;;;;;;;;;5035004;28;20068;-62
2022/01/01 11:40:42;;;;;;;50.70;29.88;;;;;;;;;;5034635;28;20431;-61
2022/01/01 11:43:28;;;;;;;51.33;29.13;;;;;;;;;;5034939;28;20476;-62
2022/01/01 11:45:57;;;;;;;55.03;29.02;;;;;;;;;;5014777;28;20022;-63
2022/01/01 11:48:42;;;;;;;48.55;29.88;;;;;;;;;;5027413;28;20030;-63
2022/01/01 11:51:20;;;;;;;58.33;31.05;;;;;;;;;;5034627;28;20056;-62
2022/01/01 11:54:16;;;;;;;56.42;30.20;;;;;;;;;;5034629;28;20075;-63
2022/01/01 11:56:45;;;;;;;50.55;30.48;;;;;;;;;;5017135;28;20040;-62
2022/01/01 11:59:18;;;;;;;48.22;29.08;;;;;;;;;;5034360;28;20022;-63
2022/01/01 12:01:45;;;;;;;46.40;28.95;;;;;;;;;;5034339;28;20465;-60
2022/01/01 12:04:31;;;;;;;53.75;30.60;;;;;;;;;;5034187;28;20021;-62
2022/01/01 12:07:01;;;;;;;51.03;29.08;;;;;;;;;;5034376;28;20026;-61
2022/01/01 12:09:28;;;;;;;51.10;29.70;;;;;;;;;;5034107;28;20037;-62
2022/01/01 12:11:56;;;;;;;56.53;30.52;;;;;;;;;;5034985;28;20033;-61
2022/01/01 12:14:28;;;;;;;53.88;29.92;;;;;;;;;;5034062;28;20018;-63
2022/01/01 12:16:55;;;;;;;59.20;31.35;;;;;;;;;;5033954;28;20022;-61
2022/01/01 12:19:23;;;;;;;50.15;30.15;;;;;;;;;;5034330;28;20029;-62
2022/01/01 12:21:59;;;;;;;52.55;28.40;;;;;;;;;;5034296;28;20140;-60
2022/01/01 12:24:27;;;;;;;51.22;28.58;;;;;;;;;;5033706;28;20028;-60
2022/01/01 12:26:53;;;;;;;40.58;24.25;;;;;;;;;;5033884;28;20032;-61
2022/01/01 12:29:25;;;;;;;38.53;23.27;;;;;;;;;;5034155;28;20064;-61
2022/01/01 12:31:58;;;;;;;39.63;23.83;;;;;;;;;;5033816;28;20029;-61
2022/01/01 12:34:26;;;;;;;34.20;20.35;;;;;;;;;;5033997;28;20017;-60
2022/01/01 12:36:53;;;;;;;31.55;19.15;;;;;;;;;;5016876;28;20026;-61
2022/01/01 12:39:19;;;;;;;36.88;21.15;;;;;;;;;;5033370;28;20108;-61
2022/01/01 12:41:45;;;;;;;37.03;21.30;;;;;;;;;;5033657;28;20059;-61
2022/01/01 12:44:14;;;;;;;36.72;22.67;;;;;;;;;;5033934;28;20087;-61
2022/01/01 12:46:45;;;;;;;36.17;22.88;;;;;;;;;;5033521;28;20025;-61
2022/01/01 12:49:12;;;;;;;43.28;26.38;;;;;;;;;;5033666;28;20550;-60
2022/01/01 12:51:38;;;;;;;43.40;24.92;;;;;;;;;;5033484;28;20033;-60
2022/01/01 12:54:25;;;;;;;46.75;26.17;;;;;;;;;;5033844;28;20017;-61
2022/01/01 12:56:51;;;;;;;49.85;27.88;;;;;;;;;;5016176;28;20546;-61
2022/01/01 12:59:18;;;;;;;48.03;28.65;;;;;;;;;;5033027;28;20033;-60
2022/01/01 13:01:45;;;;;;;54.08;31.67;;;;;;;;;;5032421;28;20067;-60
2022/01/01 13:04:12;;;;;;;54.38;30.80;;;;;;;;;;5033436;28;20020;-61
2022/01/01 13:06:39;;;;;;;51.13;31.23;;;;;;;;;;5032939;28;20025;-61
2022/01/01 13:09:06;;;;;;;58.63;32.85;;;;;;;;;;5033757;28;20026;-62
2022/01/01 13:11:33;;;;;;;58.17;31.75;;;;;;;;;;5015369;28;20063;-60
2022/01/01 13:13:59;;;;;;;62.58;33.42;;;;;;;;;;5015465;28;20033;-61
2022/01/01 13:16:26;;;;;;;63.25;32.83;;;;;;;;;;5032792;28;20057;-62
2022/01/01 13:18:52;;;;;;;61.05;34.17;;;;;;;;;;5031315;28;20384;-61
2022/01/01 13:21:21;;;;;;;56.50;31.65;;;;;;;;;;5032937;28;20022;-61
2022/01/01 13:23:48;;;;;;;63.33;33.25;;;;;;;;;;5033280;28;20025;-61
2022/01/01 13:26:14;;;;;;;58.60;31.50;;;;;;;;;;5033237;28;20025;-62
2022/01/01 13:28:41;;;;;;;61.13;32.42;;;;;;;;;;5032412;28;20510;-62
2022/01/01 13:31:08;;;;;;;67.00;34.63;;;;;;;;;;5032098;28;20037;-61
2022/01/01 13:33:36;;;;;;;59.72;33.45;;;;;;;;;;5031665;28;20030;-62
2022/01/01 13:36:06;;;;;;;75.93;38.17;;;;;;;;;;5032479;28;20017;-61
2022/01/01 13:38:33;;;;;;;78.40;41.03;;;;;;;;;;5029792;28;20470;-61
2022/01/01 13:41:01;;;;;;;75.60;41.83;;;;;;;;;;5032004;28;20022;-61
2022/01/01 13:43:31;;;;;;;77.90;40.28;;;;;;;;;;5032683;28;20376;-63
2022/01/01 13:46:11;;;;;;;74.45;40.47;;;;;;;;;;5032270;28;20079;-64
2022/01/01 13:48:45;;;;;;;75.38;41.03;;;;;;;;;;5032966;28;20025;-61
2022/01/01 13:51:11;;;;;;;87.68;48.50;;;;;;;;;;5032641;28;20038;-63
2022/01/01 13:53:37;;;;;;;96.32;51.83;;;;;;;;;;5032696;28;20029;-62
2022/01/01 13:56:07;;;;;;;96.68;50.83;;;;;;;;;;5032708;28;20491;-64
2022/01/01 13:58:40;;;;;;;91.40;50.17;;;;;;;;;;5032055;28;20029;-68
2022/01/01 14:01:07;;;;;;;91.00;51.67;;;;;;;;;;5048280;28;20021;-63
2022/01/01 14:03:33;;;;;;;113.30;61.72;;;;;;;;;;5032417;28;20044;-61
2022/01/01 14:05:59;;;;;;;118.30;63.83;;;;;;;;;;5033116;28;20026;-63
2022/01/01 14:08:27;;;;;;;114.18;62.63;;;;;;;;;;5032283;28;20032;-62
2022/01/01 14:10:57;;;;;;;102.22;58.97;;;;;;;;;;5032702;28;20459;-62
2022/01/01 14:13:27;;;;;;;72.05;43.88;;;;;;;;;;5034940;28;20021;-62
2022/01/01 14:15:54;;;;;;;84.82;48.40;;;;;;;;;;5036300;28;20580;-59
2022/01/01 14:18:30;;;;;;;56.20;34.13;;;;;;;;;;5036540;28;20108;-59
2022/01/01 14:20:57;;;;;;;61.38;34.60;;;;;;;;;;5036578;28;20040;-64